sensor_id;sensor_type;location;lat;lon;timestamp;temperature;humidity
72604;DHT22;60645;56.968;24.196;2023-04-25T00:01:40;13.90;62.90
72604;DHT22;60645;56.968;24.196;2023-04-25T00:04:07;13.90;63.00
72604;DHT22;60645;56.968;24.196;2023-04-25T00:06:35;13.90;63.50
72604;DHT22;60645;56.968;24.196;2023-04-25T00:09:04;13.90;63.70
72604;DHT22;60645;56.968;24.196;2023-04-25T00:11:34;13.80;64.50
72604;DHT22;60645;56.968;24.196;2023-04-25T00:14:00;13.70;64.40
72604;DHT22;60645;56.968;24.196;2023-04-25T00:16:29;13.70;64.50
72604;DHT22;60645;56.968;24.196;2023-04-25T00:19:00;13.60;64.50
72604;DHT22;60645;56.968;24.196;2023-04-25T00:21:28;13.50;63.40
72604;DHT22;60645;56.968;24.196;2023-04-25T00:23:55;13.60;63.40
72604;DHT22;60645;56.968;24.196;2023-04-25T00:26:22;13.60;63.80
72604;DHT22;60645;56.968;24.196;2023-04-25T00:28:49;13.50;63.30
72604;DHT22;60645;56.968;24.196;2023-04-25T00:31:16;13.50;64.00
72604;DHT22;60645;56.968;24.196;2023-04-25T00:33:43;13.40;64.30
72604;DHT22;60645;56.968;24.196;2023-04-25T00:36:10;13.40;64.90
72604;DHT22;60645;56.968;24.196;2023-04-25T00:38:37;13.30;65.30
72604;DHT22;60645;56.968;24.196;2023-04-25T00:41:07;13.20;65.60
72604;DHT22;60645;56.968;24.196;2023-04-25T00:43:36;13.20;66.30
72604;DHT22;60645;56.968;24.196;2023-04-25T00:46:03;13.10;66.20
72604;DHT22;60645;56.968;24.196;2023-04-25T00:48:30;13.10;66.00
72604;DHT22;60645;56.968;24.196;2023-04-25T00:50:58;13.00;66.80
72604;DHT22;60645;56.968;24.196;2023-04-25T00:53:27;13.00;66.50
72604;DHT22;60645;56.968;24.196;2023-04-25T00:55:54;13.00;66.30
72604;DHT22;60645;56.968;24.196;2023-04-25T00:58:22;12.90;66.50
72604;DHT22;60645;56.968;24.196;2023-04-25T01:00:50;12.90;66.50
72604;DHT22;60645;56.968;24.196;2023-04-25T01:03:19;12.90;66.40
72604;DHT22;60645;56.968;24.196;2023-04-25T01:05:47;12.80;66.50
72604;DHT22;60645;56.968;24.196;2023-04-25T01:08:14;12.80;66.60
72604;DHT22;60645;56.968;24.196;2023-04-25T01:10:41;12.80;66.40
72604;DHT22;60645;56.968;24.196;2023-04-25T01:13:08;12.80;66.30
72604;DHT22;60645;56.968;24.196;2023-04-25T01:15:36;12.80;66.70
72604;DHT22;60645;56.968;24.196;2023-04-25T01:18:04;12.70;66.80
72604;DHT22;60645;56.968;24.196;2023-04-25T01:20:32;12.70;67.10
72604;DHT22;60645;56.968;24.196;2023-04-25T01:23:00;12.70;66.70
72604;DHT22;60645;56.968;24.196;2023-04-25T01:25:30;12.70;66.30
72604;DHT22;60645;56.968;24.196;2023-04-25T01:27:58;12.80;66.00
72604;DHT22;60645;56.968;24.196;2023-04-25T01:30:28;12.80;66.40
72604;DHT22;60645;56.968;24.196;2023-04-25T01:32:56;12.80;66.50
72604;DHT22;60645;56.968;24.196;2023-04-25T01:35:23;12.70;66.70
72604;DHT22;60645;56.968;24.196;2023-04-25T01:37:51;12.70;65.50
72604;DHT22;60645;56.968;24.196;2023-04-25T01:40:19;12.80;65.10
72604;DHT22;60645;56.968;24.196;2023-04-25T01:42:47;12.90;64.80
72604;DHT22;60645;56.968;24.196;2023-04-25T01:45:14;12.80;64.70
72604;DHT22;60645;56.968;24.196;2023-04-25T01:47:41;12.80;64.60
72604;DHT22;60645;56.968;24.196;2023-04-25T01:50:10;12.80;64.80
72604;DHT22;60645;56.968;24.196;2023-04-25T01:52:38;12.90;63.80
72604;DHT22;60645;56.968;24.196;2023-04-25T01:55:05;12.70;64.00
72604;DHT22;60645;56.968;24.196;2023-04-25T01:57:32;12.70;63.80
72604;DHT22;60645;56.968;24.196;2023-04-25T02:00:01;12.70;63.90
72604;DHT22;60645;56.968;24.196;2023-04-25T02:02:29;12.60;64.60
72604;DHT22;60645;56.968;24.196;2023-04-25T02:04:56;12.60;64.50
72604;DHT22;60645;56.968;24.196;2023-04-25T02:07:23;12.60;64.40
72604;DHT22;60645;56.968;24.196;2023-04-25T02:09:50;12.50;64.50
72604;DHT22;60645;56.968;24.196;2023-04-25T02:12:17;12.50;64.90
72604;DHT22;60645;56.968;24.196;2023-04-25T02:14:44;12.50;64.90
72604;DHT22;60645;56.968;24.196;2023-04-25T02:17:11;12.40;65.10
72604;DHT22;60645;56.968;24.196;2023-04-25T02:19:39;12.40;65.80
72604;DHT22;60645;56.968;24.196;2023-04-25T02:22:06;12.20;65.70
72604;DHT22;60645;56.968;24.196;2023-04-25T02:24:33;12.30;65.80
72604;DHT22;60645;56.968;24.196;2023-04-25T02:27:01;12.10;66.00
72604;DHT22;60645;56.968;24.196;2023-04-25T02:29:29;12.20;65.60
72604;DHT22;60645;56.968;24.196;2023-04-25T02:31:56;12.10;65.70
72604;DHT22;60645;56.968;24.196;2023-04-25T02:34:23;12.10;65.60
72604;DHT22;60645;56.968;24.196;2023-04-25T02:36:49;12.00;65.60
72604;DHT22;60645;56.968;24.196;2023-04-25T02:39:19;12.10;65.40
72604;DHT22;60645;56.968;24.196;2023-04-25T02:41:48;12.10;65.50
72604;DHT22;60645;56.968;24.196;2023-04-25T02:44:15;11.90;65.40
72604;DHT22;60645;56.968;24.196;2023-04-25T02:46:42;11.90;65.40
72604;DHT22;60645;56.968;24.196;2023-04-25T02:49:09;11.90;65.10
72604;DHT22;60645;56.968;24.196;2023-04-25T02:51:36;11.80;65.10
72604;DHT22;60645;56.968;24.196;2023-04-25T02:54:03;11.90;65.70
72604;DHT22;60645;56.968;24.196;2023-04-25T02:56:30;11.70;65.40
72604;DHT22;60645;56.968;24.196;2023-04-25T02:58:57;11.80;66.10
72604;DHT22;60645;56.968;24.196;2023-04-25T03:01:23;11.70;65.70
72604;DHT22;60645;56.968;24.196;2023-04-25T03:03:50;11.60;65.60
72604;DHT22;60645;56.968;24.196;2023-04-25T03:06:18;11.50;65.60
72604;DHT22;60645;56.968;24.196;2023-04-25T03:08:45;11.50;65.80
72604;DHT22;60645;56.968;24.196;2023-04-25T03:11:11;11.60;65.70
72604;DHT22;60645;56.968;24.196;2023-04-25T03:13:38;11.50;65.70
72604;DHT22;60645;56.968;24.196;2023-04-25T03:16:05;11.50;65.40
72604;DHT22;60645;56.968;24.196;2023-04-25T03:18:32;11.60;65.30
72604;DHT22;60645;56.968;24.196;2023-04-25T03:20:59;11.60;65.40
72604;DHT22;60645;56.968;24.196;2023-04-25T03:23:26;11.60;65.10
72604;DHT22;60645;56.968;24.196;2023-04-25T03:25:53;11.70;64.90
72604;DHT22;60645;56.968;24.196;2023-04-25T03:28:20;11.90;65.00
72604;DHT22;60645;56.968;24.196;2023-04-25T03:30:47;11.90;64.70
72604;DHT22;60645;56.968;24.196;2023-04-25T03:33:14;12.20;64.30
72604;DHT22;60645;56.968;24.196;2023-04-25T03:35:41;12.50;63.30
72604;DHT22;60645;56.968;24.196;2023-04-25T03:38:09;12.40;63.30
72604;DHT22;60645;56.968;24.196;2023-04-25T03:40:36;12.80;61.60
72604;DHT22;60645;56.968;24.196;2023-04-25T03:43:03;13.20;61.60
72604;DHT22;60645;56.968;24.196;2023-04-25T03:45:30;13.40;60.10
72604;DHT22;60645;56.968;24.196;2023-04-25T03:47:57;13.30;60.80
72604;DHT22;60645;56.968;24.196;2023-04-25T03:50:24;13.10;60.90
72604;DHT22;60645;56.968;24.196;2023-04-25T03:52:51;13.10;60.90
72604;DHT22;60645;56.968;24.196;2023-04-25T03:55:18;13.40;60.90
72604;DHT22;60645;56.968;24.196;2023-04-25T03:57:45;13.30;60.60
72604;DHT22;60645;56.968;24.196;2023-04-25T04:00:12;13.00;61.30
72604;DHT22;60645;56.968;24.196;2023-04-25T04:02:39;13.10;62.10
72604;DHT22;60645;56.968;24.196;2023-04-25T04:05:10;13.00;61.70
72604;DHT22;60645;56.968;24.196;2023-04-25T04:07:37;13.00;61.80
72604;DHT22;60645;56.968;24.196;2023-04-25T04:10:07;13.00;61.80
72604;DHT22;60645;56.968;24.196;2023-04-25T04:12:34;13.10;61.70
72604;DHT22;60645;56.968;24.196;2023-04-25T04:15:02;13.00;61.70
72604;DHT22;60645;56.968;24.196;2023-04-25T04:17:30;13.10;61.80
72604;DHT22;60645;56.968;24.196;2023-04-25T04:19:57;13.10;61.80
72604;DHT22;60645;56.968;24.196;2023-04-25T04:22:24;13.20;61.60
72604;DHT22;60645;56.968;24.196;2023-04-25T04:24:51;13.20;61.60
72604;DHT22;60645;56.968;24.196;2023-04-25T04:27:19;13.40;61.50
72604;DHT22;60645;56.968;24.196;2023-04-25T04:29:46;13.40;61.20
72604;DHT22;60645;56.968;24.196;2023-04-25T04:32:14;13.40;61.30
72604;DHT22;60645;56.968;24.196;2023-04-25T04:34:41;13.40;61.20
72604;DHT22;60645;56.968;24.196;2023-04-25T04:37:08;13.50;61.20
72604;DHT22;60645;56.968;24.196;2023-04-25T04:39:36;13.60;61.10
72604;DHT22;60645;56.968;24.196;2023-04-25T04:42:03;13.60;60.80
72604;DHT22;60645;56.968;24.196;2023-04-25T04:44:31;13.70;60.90
72604;DHT22;60645;56.968;24.196;2023-04-25T04:47:02;13.70;61.10
72604;DHT22;60645;56.968;24.196;2023-04-25T04:49:32;13.90;61.40
72604;DHT22;60645;56.968;24.196;2023-04-25T04:51:59;13.90;60.50
72604;DHT22;60645;56.968;24.196;2023-04-25T04:54:27;13.90;60.40
72604;DHT22;60645;56.968;24.196;2023-04-25T04:56:54;14.00;61.30
72604;DHT22;60645;56.968;24.196;2023-04-25T04:59:21;14.00;60.40
72604;DHT22;60645;56.968;24.196;2023-04-25T05:01:48;14.10;59.80
72604;DHT22;60645;56.968;24.196;2023-04-25T05:04:15;14.00;59.60
72604;DHT22;60645;56.968;24.196;2023-04-25T05:06:43;14.20;59.30
72604;DHT22;60645;56.968;24.196;2023-04-25T05:09:13;14.30;59.30
72604;DHT22;60645;56.968;24.196;2023-04-25T05:11:41;14.40;59.60
72604;DHT22;60645;56.968;24.196;2023-04-25T05:14:08;14.40;59.10
72604;DHT22;60645;56.968;24.196;2023-04-25T05:16:35;14.40;58.70
72604;DHT22;60645;56.968;24.196;2023-04-25T05:19:02;14.50;59.50
72604;DHT22;60645;56.968;24.196;2023-04-25T05:21:29;14.50;59.00
72604;DHT22;60645;56.968;24.196;2023-04-25T05:23:57;14.60;58.50
72604;DHT22;60645;56.968;24.196;2023-04-25T05:26:25;14.60;58.80
72604;DHT22;60645;56.968;24.196;2023-04-25T05:28:51;14.60;58.60
72604;DHT22;60645;56.968;24.196;2023-04-25T05:31:18;14.50;59.50
72604;DHT22;60645;56.968;24.196;2023-04-25T05:33:45;14.60;59.00
72604;DHT22;60645;56.968;24.196;2023-04-25T05:36:12;14.70;59.40
72604;DHT22;60645;56.968;24.196;2023-04-25T05:38:39;14.80;59.30
72604;DHT22;60645;56.968;24.196;2023-04-25T05:41:06;15.00;58.40
72604;DHT22;60645;56.968;24.196;2023-04-25T05:43:34;15.10;58.40
72604;DHT22;60645;56.968;24.196;2023-04-25T05:46:00;15.20;57.60
72604;DHT22;60645;56.968;24.196;2023-04-25T05:48:28;15.20;57.70
72604;DHT22;60645;56.968;24.196;2023-04-25T05:50:55;15.20;58.00
72604;DHT22;60645;56.968;24.196;2023-04-25T05:53:22;15.20;57.30
72604;DHT22;60645;56.968;24.196;2023-04-25T05:55:48;15.20;57.60
72604;DHT22;60645;56.968;24.196;2023-04-25T05:58:15;15.30;57.50
72604;DHT22;60645;56.968;24.196;2023-04-25T06:00:42;15.20;56.80
72604;DHT22;60645;56.968;24.196;2023-04-25T06:03:09;15.30;57.20
72604;DHT22;60645;56.968;24.196;2023-04-25T06:05:36;15.30;56.40
72604;DHT22;60645;56.968;24.196;2023-04-25T06:08:03;15.40;56.70
72604;DHT22;60645;56.968;24.196;2023-04-25T06:10:30;15.50;55.70
72604;DHT22;60645;56.968;24.196;2023-04-25T06:12:58;15.80;55.00
72604;DHT22;60645;56.968;24.196;2023-04-25T06:15:25;16.40;54.50
72604;DHT22;60645;56.968;24.196;2023-04-25T06:17:55;16.50;54.10
72604;DHT22;60645;56.968;24.196;2023-04-25T06:20:22;16.50;53.70
72604;DHT22;60645;56.968;24.196;2023-04-25T06:22:51;16.40;53.50
72604;DHT22;60645;56.968;24.196;2023-04-25T06:25:21;16.40;53.70
72604;DHT22;60645;56.968;24.196;2023-04-25T06:27:48;16.40;53.60
72604;DHT22;60645;56.968;24.196;2023-04-25T06:30:14;16.40;54.40
72604;DHT22;60645;56.968;24.196;2023-04-25T06:32:43;16.60;53.30
72604;DHT22;60645;56.968;24.196;2023-04-25T06:35:09;16.50;53.70
72604;DHT22;60645;56.968;24.196;2023-04-25T06:37:36;16.60;53.80
72604;DHT22;60645;56.968;24.196;2023-04-25T06:40:04;17.10;52.50
72604;DHT22;60645;56.968;24.196;2023-04-25T06:42:31;18.10;50.30
72604;DHT22;60645;56.968;24.196;2023-04-25T06:44:58;18.60;49.70
72604;DHT22;60645;56.968;24.196;2023-04-25T06:47:25;18.80;49.30
72604;DHT22;60645;56.968;24.196;2023-04-25T06:49:52;19.60;47.70
72604;DHT22;60645;56.968;24.196;2023-04-25T06:52:19;19.20;47.70
72604;DHT22;60645;56.968;24.196;2023-04-25T06:54:46;18.70;49.00
72604;DHT22;60645;56.968;24.196;2023-04-25T06:57:13;18.20;50.00
72604;DHT22;60645;56.968;24.196;2023-04-25T06:59:40;18.60;49.00
72604;DHT22;60645;56.968;24.196;2023-04-25T07:02:07;18.80;48.60
72604;DHT22;60645;56.968;24.196;2023-04-25T07:04:34;18.70;49.20
72604;DHT22;60645;56.968;24.196;2023-04-25T07:07:01;18.50;49.80
72604;DHT22;60645;56.968;24.196;2023-04-25T07:09:30;17.90;51.10
72604;DHT22;60645;56.968;24.196;2023-04-25T07:11:56;18.00;51.20
72604;DHT22;60645;56.968;24.196;2023-04-25T07:14:23;17.70;51.90
72604;DHT22;60645;56.968;24.196;2023-04-25T07:16:50;17.60;51.50
72604;DHT22;60645;56.968;24.196;2023-04-25T07:19:18;18.00;51.40
72604;DHT22;60645;56.968;24.196;2023-04-25T07:21:45;18.20;49.90
72604;DHT22;60645;56.968;24.196;2023-04-25T07:24:11;18.20;49.90
72604;DHT22;60645;56.968;24.196;2023-04-25T07:26:38;18.20;50.10
72604;DHT22;60645;56.968;24.196;2023-04-25T07:29:05;18.20;49.50
72604;DHT22;60645;56.968;24.196;2023-04-25T07:31:33;18.30;49.20
72604;DHT22;60645;56.968;24.196;2023-04-25T07:34:00;18.20;49.30
72604;DHT22;60645;56.968;24.196;2023-04-25T07:36:27;18.80;48.10
72604;DHT22;60645;56.968;24.196;2023-04-25T07:38:54;18.70;48.00
72604;DHT22;60645;56.968;24.196;2023-04-25T07:41:21;18.80;48.10
72604;DHT22;60645;56.968;24.196;2023-04-25T07:43:48;19.70;46.60
72604;DHT22;60645;56.968;24.196;2023-04-25T07:46:15;21.30;43.70
72604;DHT22;60645;56.968;24.196;2023-04-25T07:48:42;22.00;42.00
72604;DHT22;60645;56.968;24.196;2023-04-25T07:51:09;22.60;41.30
72604;DHT22;60645;56.968;24.196;2023-04-25T07:53:36;23.40;40.50
72604;DHT22;60645;56.968;24.196;2023-04-25T07:56:04;24.20;39.40
72604;DHT22;60645;56.968;24.196;2023-04-25T07:58:31;24.10;39.60
72604;DHT22;60645;56.968;24.196;2023-04-25T08:00:58;24.50;38.90
72604;DHT22;60645;56.968;24.196;2023-04-25T08:03:25;24.40;39.00
72604;DHT22;60645;56.968;24.196;2023-04-25T08:05:52;24.40;38.30
72604;DHT22;60645;56.968;24.196;2023-04-25T08:08:20;24.10;38.60
72604;DHT22;60645;56.968;24.196;2023-04-25T08:10:47;23.70;39.30
72604;DHT22;60645;56.968;24.196;2023-04-25T08:13:14;25.00;37.80
72604;DHT22;60645;56.968;24.196;2023-04-25T08:15:42;25.40;36.80
72604;DHT22;60645;56.968;24.196;2023-04-25T08:18:09;24.90;37.20
72604;DHT22;60645;56.968;24.196;2023-04-25T08:20:36;23.70;37.50
72604;DHT22;60645;56.968;24.196;2023-04-25T08:23:03;23.90;37.90
72604;DHT22;60645;56.968;24.196;2023-04-25T08:25:30;25.20;36.60
72604;DHT22;60645;56.968;24.196;2023-04-25T08:27:57;25.90;36.00
72604;DHT22;60645;56.968;24.196;2023-04-25T08:30:26;26.30;35.70
72604;DHT22;60645;56.968;24.196;2023-04-25T08:32:53;26.20;35.80
72604;DHT22;60645;56.968;24.196;2023-04-25T08:35:21;26.30;36.40
72604;DHT22;60645;56.968;24.196;2023-04-25T08:37:48;26.00;35.30
72604;DHT22;60645;56.968;24.196;2023-04-25T08:40:16;24.20;36.80
72604;DHT22;60645;56.968;24.196;2023-04-25T08:42:43;24.40;36.70
72604;DHT22;60645;56.968;24.196;2023-04-25T08:45:10;24.10;36.20
72604;DHT22;60645;56.968;24.196;2023-04-25T08:47:38;23.60;36.60
72604;DHT22;60645;56.968;24.196;2023-04-25T08:50:06;24.10;36.70
72604;DHT22;60645;56.968;24.196;2023-04-25T08:52:43;24.30;36.20
72604;DHT22;60645;56.968;24.196;2023-04-25T08:55:12;24.80;36.10
72604;DHT22;60645;56.968;24.196;2023-04-25T08:57:41;25.40;35.90
72604;DHT22;60645;56.968;24.196;2023-04-25T09:00:10;26.40;35.10
72604;DHT22;60645;56.968;24.196;2023-04-25T09:02:39;27.10;34.40
72604;DHT22;60645;56.968;24.196;2023-04-25T09:05:07;27.20;33.90
72604;DHT22;60645;56.968;24.196;2023-04-25T09:07:38;26.30;34.10
72604;DHT22;60645;56.968;24.196;2023-04-25T09:10:05;24.50;35.60
72604;DHT22;60645;56.968;24.196;2023-04-25T09:12:33;25.70;34.80
72604;DHT22;60645;56.968;24.196;2023-04-25T09:15:09;26.90;34.50
72604;DHT22;60645;56.968;24.196;2023-04-25T09:17:36;27.40;33.80
72604;DHT22;60645;56.968;24.196;2023-04-25T09:22:36;28.70;33.20
72604;DHT22;60645;56.968;24.196;2023-04-25T09:25:08;28.70;32.60
72604;DHT22;60645;56.968;24.196;2023-04-25T09:27:35;28.00;32.80
72604;DHT22;60645;56.968;24.196;2023-04-25T09:30:03;26.60;33.70
72604;DHT22;60645;56.968;24.196;2023-04-25T09:32:30;26.30;34.10
72604;DHT22;60645;56.968;24.196;2023-04-25T09:34:58;26.70;33.60
72604;DHT22;60645;56.968;24.196;2023-04-25T09:37:27;27.20;33.40
72604;DHT22;60645;56.968;24.196;2023-04-25T09:39:56;27.60;33.30
72604;DHT22;60645;56.968;24.196;2023-04-25T09:42:26;27.70;33.00
72604;DHT22;60645;56.968;24.196;2023-04-25T09:44:54;28.50;32.30
72604;DHT22;60645;56.968;24.196;2023-04-25T09:47:24;28.50;32.20
72604;DHT22;60645;56.968;24.196;2023-04-25T09:49:52;28.30;32.40
72604;DHT22;60645;56.968;24.196;2023-04-25T09:52:21;29.20;32.20
72604;DHT22;60645;56.968;24.196;2023-04-25T09:54:52;28.80;32.50
72604;DHT22;60645;56.968;24.196;2023-04-25T09:57:21;27.80;33.10
72604;DHT22;60645;56.968;24.196;2023-04-25T09:59:50;28.60;32.50
72604;DHT22;60645;56.968;24.196;2023-04-25T10:02:19;29.00;32.20
72604;DHT22;60645;56.968;24.196;2023-04-25T10:04:52;28.60;31.90
72604;DHT22;60645;56.968;24.196;2023-04-25T10:07:28;28.30;32.00
72604;DHT22;60645;56.968;24.196;2023-04-25T10:10:00;27.80;31.80
72604;DHT22;60645;56.968;24.196;2023-04-25T10:12:33;27.40;32.20
72604;DHT22;60645;56.968;24.196;2023-04-25T10:15:01;28.20;32.00
72604;DHT22;60645;56.968;24.196;2023-04-25T10:17:29;27.60;32.40
72604;DHT22;60645;56.968;24.196;2023-04-25T10:19:56;28.90;31.50
72604;DHT22;60645;56.968;24.196;2023-04-25T10:22:30;29.30;31.60
72604;DHT22;60645;56.968;24.196;2023-04-25T10:25:00;28.90;31.60
72604;DHT22;60645;56.968;24.196;2023-04-25T10:27:31;29.00;32.00
72604;DHT22;60645;56.968;24.196;2023-04-25T10:30:07;29.10;31.30
72604;DHT22;60645;56.968;24.196;2023-04-25T10:32:37;27.90;31.90
72604;DHT22;60645;56.968;24.196;2023-04-25T10:35:30;27.90;31.90
72604;DHT22;60645;56.968;24.196;2023-04-25T10:40:25;28.20;32.10
72604;DHT22;60645;56.968;24.196;2023-04-25T10:42:53;29.70;31.20
72604;DHT22;60645;56.968;24.196;2023-04-25T10:45:23;28.40;32.10
72604;DHT22;60645;56.968;24.196;2023-04-25T10:47:50;29.80;31.70
72604;DHT22;60645;56.968;24.196;2023-04-25T10:50:17;31.90;30.60
72604;DHT22;60645;56.968;24.196;2023-04-25T10:52:44;30.90;31.00
72604;DHT22;60645;56.968;24.196;2023-04-25T10:55:11;30.10;31.40
72604;DHT22;60645;56.968;24.196;2023-04-25T10:57:45;28.10;32.80
72604;DHT22;60645;56.968;24.196;2023-04-25T11:00:18;29.60;31.90
72604;DHT22;60645;56.968;24.196;2023-04-25T11:02:52;31.10;31.10
72604;DHT22;60645;56.968;24.196;2023-04-25T11:05:26;29.40;31.70
72604;DHT22;60645;56.968;24.196;2023-04-25T11:07:56;26.50;33.10
72604;DHT22;60645;56.968;24.196;2023-04-25T11:10:34;25.00;34.10
72604;DHT22;60645;56.968;24.196;2023-04-25T11:13:02;23.90;35.10
72604;DHT22;60645;56.968;24.196;2023-04-25T11:15:29;24.80;34.10
72604;DHT22;60645;56.968;24.196;2023-04-25T11:17:56;24.40;34.70
72604;DHT22;60645;56.968;24.196;2023-04-25T11:20:25;23.90;34.80
72604;DHT22;60645;56.968;24.196;2023-04-25T11:22:53;23.10;35.80
72604;DHT22;60645;56.968;24.196;2023-04-25T11:25:19;22.70;36.60
72604;DHT22;60645;56.968;24.196;2023-04-25T11:27:55;22.40;36.60
72604;DHT22;60645;56.968;24.196;2023-04-25T11:30:26;22.40;36.90
72604;DHT22;60645;56.968;24.196;2023-04-25T11:32:53;22.50;36.60
72604;DHT22;60645;56.968;24.196;2023-04-25T11:35:20;24.90;34.70
72604;DHT22;60645;56.968;24.196;2023-04-25T11:37:50;25.40;34.00
72604;DHT22;60645;56.968;24.196;2023-04-25T11:40:17;25.40;34.00
72604;DHT22;60645;56.968;24.196;2023-04-25T11:42:45;24.30;35.20
72604;DHT22;60645;56.968;24.196;2023-04-25T11:45:13;23.00;36.00
72604;DHT22;60645;56.968;24.196;2023-04-25T11:47:40;24.10;35.20
72604;DHT22;60645;56.968;24.196;2023-04-25T11:50:08;24.10;35.40
72604;DHT22;60645;56.968;24.196;2023-04-25T11:55:12;25.20;33.30
72604;DHT22;60645;56.968;24.196;2023-04-25T11:57:40;25.30;33.00
72604;DHT22;60645;56.968;24.196;2023-04-25T12:02:44;25.10;34.00
72604;DHT22;60645;56.968;24.196;2023-04-25T12:05:13;24.10;35.20
72604;DHT22;60645;56.968;24.196;2023-04-25T12:07:58;23.10;36.00
72604;DHT22;60645;56.968;24.196;2023-04-25T12:10:25;23.50;36.10
72604;DHT22;60645;56.968;24.196;2023-04-25T12:12:52;23.80;35.90
72604;DHT22;60645;56.968;24.196;2023-04-25T12:15:24;24.60;35.00
72604;DHT22;60645;56.968;24.196;2023-04-25T12:17:53;25.90;33.60
72604;DHT22;60645;56.968;24.196;2023-04-25T12:20:25;27.20;32.50
72604;DHT22;60645;56.968;24.196;2023-04-25T12:22:52;28.20;31.90
72604;DHT22;60645;56.968;24.196;2023-04-25T12:25:39;25.90;32.90
72604;DHT22;60645;56.968;24.196;2023-04-25T12:28:22;26.20;33.10
72604;DHT22;60645;56.968;24.196;2023-04-25T12:31:01;27.20;32.90
72604;DHT22;60645;56.968;24.196;2023-04-25T12:33:31;27.50;32.80
72604;DHT22;60645;56.968;24.196;2023-04-25T12:35:59;28.60;32.10
72604;DHT22;60645;56.968;24.196;2023-04-25T12:38:29;27.50;32.40
72604;DHT22;60645;56.968;24.196;2023-04-25T12:41:00;28.00;32.10
72604;DHT22;60645;56.968;24.196;2023-04-25T12:43:27;27.90;32.10
72604;DHT22;60645;56.968;24.196;2023-04-25T12:45:55;28.80;31.90
72604;DHT22;60645;56.968;24.196;2023-04-25T12:48:22;29.40;31.60
72604;DHT22;60645;56.968;24.196;2023-04-25T12:50:50;28.10;32.00
72604;DHT22;60645;56.968;24.196;2023-04-25T12:53:19;26.30;33.10
72604;DHT22;60645;56.968;24.196;2023-04-25T12:55:47;23.40;35.20
72604;DHT22;60645;56.968;24.196;2023-04-25T13:00:43;20.50;38.50
72604;DHT22;60645;56.968;24.196;2023-04-25T13:03:11;20.30;39.10
72604;DHT22;60645;56.968;24.196;2023-04-25T13:05:39;20.20;39.00
72604;DHT22;60645;56.968;24.196;2023-04-25T13:08:06;20.10;39.20
72604;DHT22;60645;56.968;24.196;2023-04-25T13:10:33;20.20;39.20
72604;DHT22;60645;56.968;24.196;2023-04-25T13:13:00;20.30;39.50
72604;DHT22;60645;56.968;24.196;2023-04-25T13:15:28;20.20;39.80
72604;DHT22;60645;56.968;24.196;2023-04-25T13:17:55;20.30;39.60
72604;DHT22;60645;56.968;24.196;2023-04-25T13:20:22;20.10;39.80
72604;DHT22;60645;56.968;24.196;2023-04-25T13:22:49;20.10;39.90
72604;DHT22;60645;56.968;24.196;2023-04-25T13:25:17;20.00;41.40
72604;DHT22;60645;56.968;24.196;2023-04-25T13:27:43;20.00;42.70
72604;DHT22;60645;56.968;24.196;2023-04-25T13:30:11;19.60;43.80
72604;DHT22;60645;56.968;24.196;2023-04-25T13:32:38;19.20;45.70
72604;DHT22;60645;56.968;24.196;2023-04-25T13:35:08;18.60;48.90
72604;DHT22;60645;56.968;24.196;2023-04-25T13:37:37;18.20;51.10
72604;DHT22;60645;56.968;24.196;2023-04-25T13:40:09;17.90;52.70
72604;DHT22;60645;56.968;24.196;2023-04-25T13:42:37;17.90;51.30
72604;DHT22;60645;56.968;24.196;2023-04-25T13:45:05;18.10;48.50
72604;DHT22;60645;56.968;24.196;2023-04-25T13:47:32;18.20;46.70
72604;DHT22;60645;56.968;24.196;2023-04-25T13:49:59;18.10;47.00
72604;DHT22;60645;56.968;24.196;2023-04-25T13:52:29;18.00;47.70
72604;DHT22;60645;56.968;24.196;2023-04-25T13:54:56;18.10;48.00
72604;DHT22;60645;56.968;24.196;2023-04-25T13:57:23;18.20;47.70
72604;DHT22;60645;56.968;24.196;2023-04-25T13:59:50;18.30;48.10
72604;DHT22;60645;56.968;24.196;2023-04-25T14:02:18;18.30;48.10
72604;DHT22;60645;56.968;24.196;2023-04-25T14:04:45;18.30;48.70
72604;DHT22;60645;56.968;24.196;2023-04-25T14:07:13;18.30;47.70
72604;DHT22;60645;56.968;24.196;2023-04-25T14:09:42;18.30;48.50
72604;DHT22;60645;56.968;24.196;2023-04-25T14:12:09;18.40;48.30
72604;DHT22;60645;56.968;24.196;2023-04-25T14:14:36;18.60;46.50
72604;DHT22;60645;56.968;24.196;2023-04-25T14:17:04;18.80;46.00
72604;DHT22;60645;56.968;24.196;2023-04-25T14:19:31;18.90;45.40
72604;DHT22;60645;56.968;24.196;2023-04-25T14:21:58;18.90;44.90
72604;DHT22;60645;56.968;24.196;2023-04-25T14:24:25;18.90;44.90
72604;DHT22;60645;56.968;24.196;2023-04-25T14:26:52;19.00;45.10
72604;DHT22;60645;56.968;24.196;2023-04-25T14:29:19;19.10;44.60
72604;DHT22;60645;56.968;24.196;2023-04-25T14:31:46;19.20;44.50
72604;DHT22;60645;56.968;24.196;2023-04-25T14:34:13;18.60;45.70
72604;DHT22;60645;56.968;24.196;2023-04-25T14:36:40;18.50;46.20
72604;DHT22;60645;56.968;24.196;2023-04-25T14:39:08;18.40;47.40
72604;DHT22;60645;56.968;24.196;2023-04-25T14:41:36;18.10;47.90
72604;DHT22;60645;56.968;24.196;2023-04-25T14:44:04;18.20;47.30
72604;DHT22;60645;56.968;24.196;2023-04-25T14:46:31;18.20;47.20
72604;DHT22;60645;56.968;24.196;2023-04-25T14:48:58;18.30;47.40
72604;DHT22;60645;56.968;24.196;2023-04-25T14:51:25;18.20;47.80
72604;DHT22;60645;56.968;24.196;2023-04-25T14:53:53;17.80;49.30
72604;DHT22;60645;56.968;24.196;2023-04-25T14:56:20;17.50;50.20
72604;DHT22;60645;56.968;24.196;2023-04-25T14:58:47;17.30;51.40
72604;DHT22;60645;56.968;24.196;2023-04-25T15:01:14;17.30;51.80
72604;DHT22;60645;56.968;24.196;2023-04-25T15:03:41;17.10;52.50
72604;DHT22;60645;56.968;24.196;2023-04-25T15:06:09;17.10;53.20
72604;DHT22;60645;56.968;24.196;2023-04-25T15:08:36;17.20;53.80
72604;DHT22;60645;56.968;24.196;2023-04-25T15:11:03;16.80;54.50
72604;DHT22;60645;56.968;24.196;2023-04-25T15:13:30;16.70;55.00
72604;DHT22;60645;56.968;24.196;2023-04-25T15:15:57;16.60;55.20
72604;DHT22;60645;56.968;24.196;2023-04-25T15:18:24;16.70;54.90
72604;DHT22;60645;56.968;24.196;2023-04-25T15:20:52;16.70;54.70
72604;DHT22;60645;56.968;24.196;2023-04-25T15:23:20;16.80;54.20
72604;DHT22;60645;56.968;24.196;2023-04-25T15:25:50;16.70;54.00
72604;DHT22;60645;56.968;24.196;2023-04-25T15:28:19;16.70;54.20
72604;DHT22;60645;56.968;24.196;2023-04-25T15:30:48;16.70;54.40
72604;DHT22;60645;56.968;24.196;2023-04-25T15:33:15;16.60;54.80